sensor_id;sensor_type;location;lat;lon;timestamp;P1;durP1;ratioP1;P2;durP2;ratioP2
26113;SDS011;13966;48.828;9.064;2023-03-14T00:01:13;0.82;;;0.80;;
26113;SDS011;13966;48.828;9.064;2023-03-14T00:03:39;0.60;;;0.60;;
26113;SDS011;13966;48.828;9.064;2023-03-14T00:06:06;2.08;;;0.85;;
26113;SDS011;13966;48.828;9.064;2023-03-14T00:08:32;1.85;;;0.90;;
26113;SDS011;13966;48.828;9.064;2023-03-14T00:11:03;0.95;;;0.90;;
26113;SDS011;13966;48.828;9.064;2023-03-14T00:13:29;1.77;;;0.73;;
26113;SDS011;13966;48.828;9.064;2023-03-14T00:15:55;1.73;;;0.80;;
26113;SDS011;13966;48.828;9.064;2023-03-14T00:18:26;2.35;;;0.80;;
26113;SDS011;13966;48.828;9.064;2023-03-14T00:20:52;2.55;;;0.90;;
26113;SDS011;13966;48.828;9.064;2023-03-14T00:23:18;0.75;;;0.75;;
26113;SDS011;13966;48.828;9.064;2023-03-14T00:25:44;0.70;;;0.60;;
26113;SDS011;13966;48.828;9.064;2023-03-14T00:28:10;1.00;;;0.90;;
26113;SDS011;13966;48.828;9.064;2023-03-14T00:30:38;0.75;;;0.75;;
26113;SDS011;13966;48.828;9.064;2023-03-14T00:33:04;1.88;;;0.95;;
26113;SDS011;13966;48.828;9.064;2023-03-14T00:35:30;2.55;;;0.88;;
26113;SDS011;13966;48.828;9.064;2023-03-14T00:37:56;1.42;;;0.90;;
26113;SDS011;13966;48.828;9.064;2023-03-14T00:40:22;2.33;;;0.90;;
26113;SDS011;13966;48.828;9.064;2023-03-14T00:42:48;2.17;;;1.20;;
26113;SDS011;13966;48.828;9.064;2023-03-14T00:45:14;1.52;;;1.02;;
26113;SDS011;13966;48.828;9.064;2023-03-14T00:47:40;0.90;;;0.88;;
26113;SDS011;13966;48.828;9.064;2023-03-14T00:50:10;1.33;;;0.93;;
26113;SDS011;13966;48.828;9.064;2023-03-14T00:52:36;2.55;;;1.20;;
26113;SDS011;13966;48.828;9.064;2023-03-14T00:55:03;2.88;;;0.90;;
26113;SDS011;13966;48.828;9.064;2023-03-14T00:57:29;1.95;;;0.90;;
26113;SDS011;13966;48.828;9.064;2023-03-14T00:59:55;1.05;;;0.90;;
26113;SDS011;13966;48.828;9.064;2023-03-14T01:02:21;1.48;;;1.00;;
26113;SDS011;13966;48.828;9.064;2023-03-14T01:04:48;0.80;;;0.70;;
26113;SDS011;13966;48.828;9.064;2023-03-14T01:07:14;1.08;;;0.88;;
26113;SDS011;13966;48.828;9.064;2023-03-14T01:09:40;3.63;;;0.95;;
26113;SDS011;13966;48.828;9.064;2023-03-14T01:12:07;1.30;;;0.80;;
26113;SDS011;13966;48.828;9.064;2023-03-14T01:14:33;1.23;;;0.90;;
26113;SDS011;13966;48.828;9.064;2023-03-14T01:16:59;0.80;;;0.55;;
26113;SDS011;13966;48.828;9.064;2023-03-14T01:19:28;1.55;;;0.60;;
26113;SDS011;13966;48.828;9.064;2023-03-14T01:21:54;1.05;;;0.75;;
26113;SDS011;13966;48.828;9.064;2023-03-14T01:24:20;1.10;;;0.70;;
26113;SDS011;13966;48.828;9.064;2023-03-14T01:26:46;1.25;;;0.70;;
26113;SDS011;13966;48.828;9.064;2023-03-14T01:29:12;0.82;;;0.70;;
26113;SDS011;13966;48.828;9.064;2023-03-14T01:31:39;0.82;;;0.52;;
26113;SDS011;13966;48.828;9.064;2023-03-14T01:34:05;1.55;;;0.70;;
26113;SDS011;13966;48.828;9.064;2023-03-14T01:36:31;2.25;;;0.88;;
26113;SDS011;13966;48.828;9.064;2023-03-14T01:38:57;0.63;;;0.63;;
26113;SDS011;13966;48.828;9.064;2023-03-14T01:41:23;0.68;;;0.43;;
26113;SDS011;13966;48.828;9.064;2023-03-14T01:43:50;2.67;;;0.90;;
26113;SDS011;13966;48.828;9.064;2023-03-14T01:46:26;1.65;;;0.82;;
26113;SDS011;13966;48.828;9.064;2023-03-14T01:48:55;2.30;;;0.75;;
26113;SDS011;13966;48.828;9.064;2023-03-14T01:51:27;1.00;;;0.70;;
26113;SDS011;13966;48.828;9.064;2023-03-14T01:53:57;1.17;;;0.60;;
26113;SDS011;13966;48.828;9.064;2023-03-14T01:56:25;2.50;;;0.75;;
26113;SDS011;13966;48.828;9.064;2023-03-14T01:58:52;1.17;;;0.65;;
26113;SDS011;13966;48.828;9.064;2023-03-14T02:01:19;1.38;;;0.70;;
26113;SDS011;13966;48.828;9.064;2023-03-14T02:03:48;1.45;;;0.73;;
26113;SDS011;13966;48.828;9.064;2023-03-14T02:06:16;1.38;;;0.65;;
26113;SDS011;13966;48.828;9.064;2023-03-14T02:08:43;1.70;;;0.70;;
26113;SDS011;13966;48.828;9.064;2023-03-14T02:11:13;1.48;;;0.70;;
26113;SDS011;13966;48.828;9.064;2023-03-14T02:13:39;2.47;;;0.98;;
26113;SDS011;13966;48.828;9.064;2023-03-14T02:16:05;2.42;;;0.85;;
26113;SDS011;13966;48.828;9.064;2023-03-14T02:18:31;1.52;;;0.40;;
26113;SDS011;13966;48.828;9.064;2023-03-14T02:21:01;0.60;;;0.60;;
26113;SDS011;13966;48.828;9.064;2023-03-14T02:23:32;0.60;;;0.60;;
26113;SDS011;13966;48.828;9.064;2023-03-14T02:28:27;1.30;;;0.70;;
26113;SDS011;13966;48.828;9.064;2023-03-14T02:30:53;0.90;;;0.55;;
26113;SDS011;13966;48.828;9.064;2023-03-14T02:33:19;1.13;;;0.60;;
26113;SDS011;13966;48.828;9.064;2023-03-14T02:35:59;0.57;;;0.40;;
26113;SDS011;13966;48.828;9.064;2023-03-14T02:38:36;1.63;;;0.70;;
26113;SDS011;13966;48.828;9.064;2023-03-14T02:41:03;0.50;;;0.30;;
26113;SDS011;13966;48.828;9.064;2023-03-14T02:43:29;4.15;;;0.80;;
26113;SDS011;13966;48.828;9.064;2023-03-14T02:45:55;2.75;;;0.70;;
26113;SDS011;13966;48.828;9.064;2023-03-14T02:48:24;0.70;;;0.60;;
26113;SDS011;13966;48.828;9.064;2023-03-14T02:50:51;2.00;;;0.75;;
26113;SDS011;13966;48.828;9.064;2023-03-14T02:53:20;3.47;;;0.82;;
26113;SDS011;13966;48.828;9.064;2023-03-14T02:55:47;1.52;;;0.60;;
26113;SDS011;13966;48.828;9.064;2023-03-14T02:58:13;0.93;;;0.85;;
26113;SDS011;13966;48.828;9.064;2023-03-14T03:00:39;1.65;;;0.60;;
26113;SDS011;13966;48.828;9.064;2023-03-14T03:03:05;1.13;;;0.60;;
26113;SDS011;13966;48.828;9.064;2023-03-14T03:05:32;4.10;;;0.70;;
26113;SDS011;13966;48.828;9.064;2023-03-14T03:07:58;2.35;;;0.80;;
26113;SDS011;13966;48.828;9.064;2023-03-14T03:10:24;2.83;;;0.70;;
26113;SDS011;13966;48.828;9.064;2023-03-14T03:12:50;3.58;;;0.77;;
26113;SDS011;13966;48.828;9.064;2023-03-14T03:15:16;1.65;;;0.65;;
26113;SDS011;13966;48.828;9.064;2023-03-14T03:17:42;1.50;;;0.90;;
26113;SDS011;13966;48.828;9.064;2023-03-14T03:20:09;1.75;;;0.80;;
26113;SDS011;13966;48.828;9.064;2023-03-14T03:22:36;1.05;;;0.68;;
26113;SDS011;13966;48.828;9.064;2023-03-14T03:25:02;2.70;;;0.82;;
26113;SDS011;13966;48.828;9.064;2023-03-14T03:27:29;1.67;;;0.88;;
26113;SDS011;13966;48.828;9.064;2023-03-14T03:29:56;3.65;;;0.88;;
26113;SDS011;13966;48.828;9.064;2023-03-14T03:32:22;1.88;;;0.90;;
26113;SDS011;13966;48.828;9.064;2023-03-14T03:34:48;2.45;;;1.17;;
26113;SDS011;13966;48.828;9.064;2023-03-14T03:37:14;2.53;;;0.80;;
26113;SDS011;13966;48.828;9.064;2023-03-14T03:39:40;2.95;;;0.80;;
26113;SDS011;13966;48.828;9.064;2023-03-14T03:42:06;2.60;;;1.17;;
26113;SDS011;13966;48.828;9.064;2023-03-14T03:44:32;3.17;;;0.95;;
26113;SDS011;13966;48.828;9.064;2023-03-14T03:46:58;1.50;;;0.90;;
26113;SDS011;13966;48.828;9.064;2023-03-14T03:49:28;2.35;;;0.80;;
26113;SDS011;13966;48.828;9.064;2023-03-14T03:51:54;2.17;;;0.88;;
26113;SDS011;13966;48.828;9.064;2023-03-14T03:54:20;2.38;;;0.88;;
26113;SDS011;13966;48.828;9.064;2023-03-14T03:56:46;3.25;;;1.02;;
26113;SDS011;13966;48.828;9.064;2023-03-14T03:59:12;4.07;;;1.15;;
26113;SDS011;13966;48.828;9.064;2023-03-14T04:01:38;3.38;;;1.00;;
26113;SDS011;13966;48.828;9.064;2023-03-14T04:04:04;1.77;;;0.80;;
26113;SDS011;13966;48.828;9.064;2023-03-14T04:06:30;1.85;;;0.80;;
26113;SDS011;13966;48.828;9.064;2023-03-14T04:08:56;3.13;;;0.80;;
26113;SDS011;13966;48.828;9.064;2023-03-14T04:11:22;2.53;;;0.80;;
26113;SDS011;13966;48.828;9.064;2023-03-14T04:13:48;3.15;;;1.02;;
26113;SDS011;13966;48.828;9.064;2023-03-14T04:16:15;7.88;;;1.10;;
26113;SDS011;13966;48.828;9.064;2023-03-14T04:18:42;3.70;;;1.00;;
26113;SDS011;13966;48.828;9.064;2023-03-14T04:21:08;4.20;;;1.20;;
26113;SDS011;13966;48.828;9.064;2023-03-14T04:23:34;5.05;;;0.80;;
26113;SDS011;13966;48.828;9.064;2023-03-14T04:26:00;3.47;;;0.98;;
26113;SDS011;13966;48.828;9.064;2023-03-14T04:28:26;6.00;;;1.17;;
26113;SDS011;13966;48.828;9.064;2023-03-14T04:30:52;2.47;;;0.88;;
26113;SDS011;13966;48.828;9.064;2023-03-14T04:33:18;4.75;;;0.93;;
26113;SDS011;13966;48.828;9.064;2023-03-14T04:35:44;4.30;;;1.10;;
26113;SDS011;13966;48.828;9.064;2023-03-14T04:38:11;5.88;;;1.15;;
26113;SDS011;13966;48.828;9.064;2023-03-14T04:40:37;7.07;;;1.17;;
26113;SDS011;13966;48.828;9.064;2023-03-14T04:43:03;5.68;;;1.02;;
26113;SDS011;13966;48.828;9.064;2023-03-14T04:45:29;3.10;;;0.95;;
26113;SDS011;13966;48.828;9.064;2023-03-14T04:47:56;4.78;;;1.42;;
26113;SDS011;13966;48.828;9.064;2023-03-14T04:50:22;3.47;;;1.10;;
26113;SDS011;13966;48.828;9.064;2023-03-14T04:52:48;3.17;;;0.90;;
26113;SDS011;13966;48.828;9.064;2023-03-14T04:55:14;4.40;;;1.05;;
26113;SDS011;13966;48.828;9.064;2023-03-14T04:57:40;4.38;;;1.13;;
26113;SDS011;13966;48.828;9.064;2023-03-14T05:00:06;3.28;;;1.02;;
26113;SDS011;13966;48.828;9.064;2023-03-14T05:02:33;4.43;;;1.52;;
26113;SDS011;13966;48.828;9.064;2023-03-14T05:04:59;6.90;;;1.50;;
26113;SDS011;13966;48.828;9.064;2023-03-14T05:07:25;4.10;;;1.00;;
26113;SDS011;13966;48.828;9.064;2023-03-14T05:09:51;6.47;;;1.38;;
26113;SDS011;13966;48.828;9.064;2023-03-14T05:12:18;3.25;;;1.20;;
26113;SDS011;13966;48.828;9.064;2023-03-14T05:14:44;4.70;;;1.52;;
26113;SDS011;13966;48.828;9.064;2023-03-14T05:17:10;3.55;;;1.30;;
26113;SDS011;13966;48.828;9.064;2023-03-14T05:19:39;3.95;;;1.00;;
26113;SDS011;13966;48.828;9.064;2023-03-14T05:22:05;5.40;;;1.10;;
26113;SDS011;13966;48.828;9.064;2023-03-14T05:24:31;7.25;;;1.38;;
26113;SDS011;13966;48.828;9.064;2023-03-14T05:26:57;4.30;;;0.90;;
26113;SDS011;13966;48.828;9.064;2023-03-14T05:29:23;5.07;;;1.20;;
26113;SDS011;13966;48.828;9.064;2023-03-14T05:31:49;6.13;;;1.60;;
26113;SDS011;13966;48.828;9.064;2023-03-14T05:34:15;2.47;;;0.90;;
26113;SDS011;13966;48.828;9.064;2023-03-14T05:36:41;3.13;;;1.00;;
26113;SDS011;13966;48.828;9.064;2023-03-14T05:39:07;3.28;;;0.80;;
26113;SDS011;13966;48.828;9.064;2023-03-14T05:41:33;2.88;;;0.93;;
26113;SDS011;13966;48.828;9.064;2023-03-14T05:44:00;4.95;;;1.00;;
26113;SDS011;13966;48.828;9.064;2023-03-14T05:46:26;4.18;;;1.00;;
26113;SDS011;13966;48.828;9.064;2023-03-14T05:48:52;3.60;;;1.15;;
26113;SDS011;13966;48.828;9.064;2023-03-14T05:51:18;5.95;;;1.08;;
26113;SDS011;13966;48.828;9.064;2023-03-14T05:53:44;5.45;;;1.10;;
26113;SDS011;13966;48.828;9.064;2023-03-14T05:56:10;3.38;;;0.80;;
26113;SDS011;13966;48.828;9.064;2023-03-14T05:58:36;2.83;;;0.95;;
26113;SDS011;13966;48.828;9.064;2023-03-14T06:01:04;4.07;;;1.00;;
26113;SDS011;13966;48.828;9.064;2023-03-14T06:03:30;5.53;;;1.00;;
26113;SDS011;13966;48.828;9.064;2023-03-14T06:05:56;3.35;;;0.88;;
26113;SDS011;13966;48.828;9.064;2023-03-14T06:08:22;5.28;;;1.17;;
26113;SDS011;13966;48.828;9.064;2023-03-14T06:10:49;4.18;;;0.77;;
26113;SDS011;13966;48.828;9.064;2023-03-14T06:13:15;4.57;;;1.13;;
26113;SDS011;13966;48.828;9.064;2023-03-14T06:15:41;4.05;;;1.00;;
26113;SDS011;13966;48.828;9.064;2023-03-14T06:18:08;3.28;;;1.00;;
26113;SDS011;13966;48.828;9.064;2023-03-14T06:20:37;4.43;;;1.33;;
26113;SDS011;13966;48.828;9.064;2023-03-14T06:23:07;2.40;;;0.80;;
26113;SDS011;13966;48.828;9.064;2023-03-14T06:25:33;5.93;;;1.20;;
26113;SDS011;13966;48.828;9.064;2023-03-14T06:28:00;2.13;;;0.73;;
26113;SDS011;13966;48.828;9.064;2023-03-14T06:30:26;7.15;;;1.00;;
26113;SDS011;13966;48.828;9.064;2023-03-14T06:32:52;3.60;;;0.82;;
26113;SDS011;13966;48.828;9.064;2023-03-14T06:35:18;3.50;;;1.02;;
26113;SDS011;13966;48.828;9.064;2023-03-14T06:37:44;2.38;;;1.10;;
26113;SDS011;13966;48.828;9.064;2023-03-14T06:40:10;2.50;;;0.82;;
26113;SDS011;13966;48.828;9.064;2023-03-14T06:42:45;2.15;;;1.08;;
26113;SDS011;13966;48.828;9.064;2023-03-14T06:45:11;2.85;;;0.80;;
26113;SDS011;13966;48.828;9.064;2023-03-14T06:47:37;2.50;;;1.08;;
26113;SDS011;13966;48.828;9.064;2023-03-14T06:50:04;4.07;;;0.95;;
26113;SDS011;13966;48.828;9.064;2023-03-14T06:52:30;1.85;;;0.93;;
26113;SDS011;13966;48.828;9.064;2023-03-14T06:54:56;4.05;;;0.90;;
26113;SDS011;13966;48.828;9.064;2023-03-14T06:57:22;2.08;;;0.60;;
26113;SDS011;13966;48.828;9.064;2023-03-14T06:59:48;2.67;;;0.77;;
26113;SDS011;13966;48.828;9.064;2023-03-14T07:02:14;0.98;;;0.65;;
26113;SDS011;13966;48.828;9.064;2023-03-14T07:04:40;3.95;;;0.70;;
26113;SDS011;13966;48.828;9.064;2023-03-14T07:07:06;4.10;;;0.80;;
26113;SDS011;13966;48.828;9.064;2023-03-14T07:09:32;3.67;;;1.08;;
26113;SDS011;13966;48.828;9.064;2023-03-14T07:11:59;1.67;;;0.60;;
26113;SDS011;13966;48.828;9.064;2023-03-14T07:14:25;1.25;;;0.50;;
26113;SDS011;13966;48.828;9.064;2023-03-14T07:16:51;1.60;;;0.88;;
26113;SDS011;13966;48.828;9.064;2023-03-14T07:19:17;2.97;;;1.23;;
26113;SDS011;13966;48.828;9.064;2023-03-14T07:21:43;2.58;;;0.80;;
26113;SDS011;13966;48.828;9.064;2023-03-14T07:24:09;2.70;;;0.57;;
26113;SDS011;13966;48.828;9.064;2023-03-14T07:26:35;1.88;;;0.82;;
26113;SDS011;13966;48.828;9.064;2023-03-14T07:29:02;3.92;;;1.00;;
26113;SDS011;13966;48.828;9.064;2023-03-14T07:31:28;5.65;;;0.65;;
26113;SDS011;13966;48.828;9.064;2023-03-14T07:33:54;1.40;;;0.60;;
26113;SDS011;13966;48.828;9.064;2023-03-14T07:36:20;3.10;;;0.68;;
26113;SDS011;13966;48.828;9.064;2023-03-14T07:38:46;2.63;;;0.75;;
26113;SDS011;13966;48.828;9.064;2023-03-14T07:41:12;1.23;;;0.50;;
26113;SDS011;13966;48.828;9.064;2023-03-14T07:43:38;0.88;;;0.50;;
26113;SDS011;13966;48.828;9.064;2023-03-14T07:46:05;1.38;;;0.52;;
26113;SDS011;13966;48.828;9.064;2023-03-14T07:48:31;3.10;;;0.60;;
26113;SDS011;13966;48.828;9.064;2023-03-14T07:50:57;2.03;;;0.70;;
26113;SDS011;13966;48.828;9.064;2023-03-14T07:53:23;1.27;;;0.50;;
26113;SDS011;13966;48.828;9.064;2023-03-14T07:55:50;2.22;;;0.80;;
26113;SDS011;13966;48.828;9.064;2023-03-14T07:58:16;0.93;;;0.40;;
26113;SDS011;13966;48.828;9.064;2023-03-14T08:00:42;3.42;;;0.65;;
26113;SDS011;13966;48.828;9.064;2023-03-14T08:03:09;2.67;;;0.95;;
26113;SDS011;13966;48.828;9.064;2023-03-14T08:05:35;0.98;;;0.40;;
26113;SDS011;13966;48.828;9.064;2023-03-14T08:08:01;0.77;;;0.43;;
26113;SDS011;13966;48.828;9.064;2023-03-14T08:10:27;0.93;;;0.30;;
26113;SDS011;13966;48.828;9.064;2023-03-14T08:12:54;0.88;;;0.57;;
26113;SDS011;13966;48.828;9.064;2023-03-14T08:15:21;8.32;;;1.02;;
26113;SDS011;13966;48.828;9.064;2023-03-14T08:17:47;0.30;;;0.20;;
26113;SDS011;13966;48.828;9.064;2023-03-14T08:20:18;2.17;;;0.40;;
26113;SDS011;13966;48.828;9.064;2023-03-14T08:22:44;0.30;;;0.20;;
26113;SDS011;13966;48.828;9.064;2023-03-14T08:25:10;1.00;;;0.20;;
26113;SDS011;13966;48.828;9.064;2023-03-14T08:27:36;4.07;;;0.40;;
26113;SDS011;13966;48.828;9.064;2023-03-14T08:30:04;0.50;;;0.32;;
26113;SDS011;13966;48.828;9.064;2023-03-14T08:32:30;0.90;;;0.40;;
26113;SDS011;13966;48.828;9.064;2023-03-14T08:34:57;2.70;;;0.30;;
26113;SDS011;13966;48.828;9.064;2023-03-14T08:37:23;1.02;;;0.43;;
26113;SDS011;13966;48.828;9.064;2023-03-14T08:39:50;2.83;;;0.50;;
26113;SDS011;13966;48.828;9.064;2023-03-14T08:42:16;2.30;;;0.50;;
26113;SDS011;13966;48.828;9.064;2023-03-14T08:44:42;2.03;;;0.47;;
26113;SDS011;13966;48.828;9.064;2023-03-14T08:47:08;1.48;;;0.57;;
26113;SDS011;13966;48.828;9.064;2023-03-14T08:49:34;2.17;;;0.60;;
26113;SDS011;13966;48.828;9.064;2023-03-14T08:52:01;0.60;;;0.40;;
26113;SDS011;13966;48.828;9.064;2023-03-14T08:54:28;2.05;;;0.45;;
26113;SDS011;13966;48.828;9.064;2023-03-14T08:56:54;3.17;;;0.50;;
26113;SDS011;13966;48.828;9.064;2023-03-14T08:59:20;0.30;;;0.30;;
26113;SDS011;13966;48.828;9.064;2023-03-14T09:01:46;2.33;;;0.47;;
26113;SDS011;13966;48.828;9.064;2023-03-14T09:04:12;0.85;;;0.43;;
26113;SDS011;13966;48.828;9.064;2023-03-14T09:06:38;1.48;;;0.30;;
26113;SDS011;13966;48.828;9.064;2023-03-14T09:09:04;1.23;;;0.50;;
26113;SDS011;13966;48.828;9.064;2023-03-14T09:11:31;1.13;;;0.50;;
26113;SDS011;13966;48.828;9.064;2023-03-14T09:13:57;0.38;;;0.38;;
26113;SDS011;13966;48.828;9.064;2023-03-14T09:16:23;1.80;;;0.73;;
26113;SDS011;13966;48.828;9.064;2023-03-14T09:18:49;0.65;;;0.50;;
26113;SDS011;13966;48.828;9.064;2023-03-14T09:21:18;3.85;;;0.47;;
26113;SDS011;13966;48.828;9.064;2023-03-14T09:23:44;0.40;;;0.32;;
26113;SDS011;13966;48.828;9.064;2023-03-14T09:26:10;2.58;;;0.55;;
26113;SDS011;13966;48.828;9.064;2023-03-14T09:28:36;1.33;;;0.30;;
26113;SDS011;13966;48.828;9.064;2023-03-14T09:31:09;3.20;;;0.93;;
26113;SDS011;13966;48.828;9.064;2023-03-14T09:33:36;2.88;;;1.75;;
26113;SDS011;13966;48.828;9.064;2023-03-14T09:36:02;2.65;;;1.02;;
26113;SDS011;13966;48.828;9.064;2023-03-14T09:38:28;2.70;;;0.88;;
26113;SDS011;13966;48.828;9.064;2023-03-14T09:40:54;2.13;;;0.70;;
26113;SDS011;13966;48.828;9.064;2023-03-14T09:43:21;1.42;;;0.47;;
26113;SDS011;13966;48.828;9.064;2023-03-14T09:45:48;1.40;;;0.30;;
26113;SDS011;13966;48.828;9.064;2023-03-14T09:48:22;1.00;;;0.32;;
26113;SDS011;13966;48.828;9.064;2023-03-14T09:50:51;0.38;;;0.38;;
26113;SDS011;13966;48.828;9.064;2023-03-14T09:53:18;0.10;;;0.10;;
26113;SDS011;13966;48.828;9.064;2023-03-14T09:55:45;0.52;;;0.30;;
26113;SDS011;13966;48.828;9.064;2023-03-14T09:58:14;0.40;;;0.30;;
26113;SDS011;13966;48.828;9.064;2023-03-14T10:00:42;1.65;;;0.30;;
26113;SDS011;13966;48.828;9.064;2023-03-14T10:05:34;0.10;;;0.10;;
26113;SDS011;13966;48.828;9.064;2023-03-14T10:08:00;1.25;;;0.20;;
26113;SDS011;13966;48.828;9.064;2023-03-14T10:10:26;0.10;;;0.10;;
26113;SDS011;13966;48.828;9.064;2023-03-14T10:12:57;0.57;;;0.20;;
26113;SDS011;13966;48.828;9.064;2023-03-14T10:15:28;1.05;;;0.38;;
26113;SDS011;13966;48.828;9.064;2023-03-14T10:17:55;0.50;;;0.32;;
26113;SDS011;13966;48.828;9.064;2023-03-14T10:20:26;1.25;;;0.20;;
26113;SDS011;13966;48.828;9.064;2023-03-14T10:22:59;0.75;;;0.10;;
26113;SDS011;13966;48.828;9.064;2023-03-14T10:25:27;0.60;;;0.40;;
26113;SDS011;13966;48.828;9.064;2023-03-14T10:27:53;0.43;;;0.30;;
26113;SDS011;13966;48.828;9.064;2023-03-14T10:33:18;0.70;;;0.40;;
26113;SDS011;13966;48.828;9.064;2023-03-14T10:35:52;1.83;;;0.40;;
26113;SDS011;13966;48.828;9.064;2023-03-14T10:38:19;9.93;;;0.40;;
26113;SDS011;13966;48.828;9.064;2023-03-14T10:40:50;3.65;;;0.57;;
26113;SDS011;13966;48.828;9.064;2023-03-14T10:43:25;0.68;;;0.10;;
26113;SDS011;13966;48.828;9.064;2023-03-14T10:46:34;2.80;;;0.60;;
26113;SDS011;13966;48.828;9.064;2023-03-14T10:48:42;0.82;;;0.45;;
26113;SDS011;13966;48.828;9.064;2023-03-14T10:53:49;0.10;;;0.10;;
26113;SDS011;13966;48.828;9.064;2023-03-14T10:56:21;1.33;;;0.20;;
26113;SDS011;13966;48.828;9.064;2023-03-14T10:58:48;0.68;;;0.28;;
26113;SDS011;13966;48.828;9.064;2023-03-14T11:01:22;1.23;;;0.50;;
26113;SDS011;13966;48.828;9.064;2023-03-14T11:03:57;0.82;;;0.20;;
26113;SDS011;13966;48.828;9.064;2023-03-14T11:07:27;0.88;;;0.40;;
26113;SDS011;13966;48.828;9.064;2023-03-14T11:09:22;1.65;;;0.47;;
26113;SDS011;13966;48.828;9.064;2023-03-14T11:11:52;0.90;;;0.38;;
26113;SDS011;13966;48.828;9.064;2023-03-14T11:16:53;1.20;;;0.57;;
26113;SDS011;13966;48.828;9.064;2023-03-14T11:27:15;0.80;;;0.50;;
26113;SDS011;13966;48.828;9.064;2023-03-14T11:29:48;1.88;;;0.85;;
26113;SDS011;13966;48.828;9.064;2023-03-14T11:32:22;0.47;;;0.30;;
26113;SDS011;13966;48.828;9.064;2023-03-14T11:34:52;2.40;;;0.68;;
26113;SDS011;13966;48.828;9.064;2023-03-14T11:37:26;3.63;;;0.70;;
26113;SDS011;13966;48.828;9.064;2023-03-14T11:42:27;2.28;;;0.40;;
26113;SDS011;13966;48.828;9.064;2023-03-14T11:44:54;2.70;;;0.47;;
26113;SDS011;13966;48.828;9.064;2023-03-14T11:47:23;3.10;;;0.47;;
26113;SDS011;13966;48.828;9.064;2023-03-14T11:50:12;0.65;;;0.50;;
26113;SDS011;13966;48.828;9.064;2023-03-14T11:52:44;0.80;;;0.50;;
26113;SDS011;13966;48.828;9.064;2023-03-14T11:55:28;1.00;;;0.30;;
26113;SDS011;13966;48.828;9.064;2023-03-14T11:58:01;1.00;;;0.73;;
26113;SDS011;13966;48.828;9.064;2023-03-14T12:00:29;1.88;;;0.68;;
26113;SDS011;13966;48.828;9.064;2023-03-14T12:03:01;0.95;;;0.70;;
26113;SDS011;13966;48.828;9.064;2023-03-14T12:13:10;3.65;;;2.00;;
26113;SDS011;13966;48.828;9.064;2023-03-14T12:15:40;5.68;;;2.17;;
26113;SDS011;13966;48.828;9.064;2023-03-14T12:21:14;0.60;;;0.60;;
26113;SDS011;13966;48.828;9.064;2023-03-14T12:23:49;1.27;;;0.70;;
26113;SDS011;13966;48.828;9.064;2023-03-14T12:26:20;0.50;;;0.50;;
26113;SDS011;13966;48.828;9.064;2023-03-14T12:34:01;1.30;;;1.05;;
26113;SDS011;13966;48.828;9.064;2023-03-14T12:41:51;3.28;;;0.90;;
26113;SDS011;13966;48.828;9.064;2023-03-14T12:49:46;2.58;;;0.60;;
26113;SDS011;13966;48.828;9.064;2023-03-14T12:52:16;1.67;;;0.70;;
26113;SDS011;13966;48.828;9.064;2023-03-14T12:54:56;2.10;;;0.60;;
26113;SDS011;13966;48.828;9.064;2023-03-14T12:57:45;0.55;;;0.40;;
26113;SDS011;13966;48.828;9.064;2023-03-14T13:05:56;0.90;;;0.30;;
26113;SDS011;13966;48.828;9.064;2023-03-14T13:11:21;1.08;;;0.47;;
26113;SDS011;13966;48.828;9.064;2023-03-14T13:13:48;4.13;;;0.60;;
26113;SDS011;13966;48.828;9.064;2023-03-14T13:16:17;2.83;;;0.50;;
26113;SDS011;13966;48.828;9.064;2023-03-14T13:18:50;0.82;;;0.38;;
26113;SDS011;13966;48.828;9.064;2023-03-14T13:21:18;1.20;;;0.45;;
26113;SDS011;13966;48.828;9.064;2023-03-14T13:24:01;2.20;;;0.60;;
26113;SDS011;13966;48.828;9.064;2023-03-14T13:26:41;3.17;;;1.00;;
26113;SDS011;13966;48.828;9.064;2023-03-14T13:29:17;1.48;;;0.90;;
26113;SDS011;13966;48.828;9.064;2023-03-14T13:31:47;1.35;;;0.63;;
26113;SDS011;13966;48.828;9.064;2023-03-14T13:34:14;3.63;;;1.23;;
26113;SDS011;13966;48.828;9.064;2023-03-14T13:36:40;2.95;;;1.00;;
26113;SDS011;13966;48.828;9.064;2023-03-14T13:39:12;1.65;;;0.77;;
26113;SDS011;13966;48.828;9.064;2023-03-14T13:41:42;5.15;;;0.90;;
26113;SDS011;13966;48.828;9.064;2023-03-14T13:44:13;1.52;;;0.85;;
26113;SDS011;13966;48.828;9.064;2023-03-14T13:46:39;2.33;;;0.80;;
26113;SDS011;13966;48.828;9.064;2023-03-14T13:49:06;2.22;;;0.80;;
26113;SDS011;13966;48.828;9.064;2023-03-14T13:51:37;3.33;;;0.70;;
26113;SDS011;13966;48.828;9.064;2023-03-14T13:54:11;3.78;;;0.70;;
26113;SDS011;13966;48.828;9.064;2023-03-14T13:56:38;2.78;;;0.88;;
26113;SDS011;13966;48.828;9.064;2023-03-14T13:59:19;1.50;;;0.60;;
26113;SDS011;13966;48.828;9.064;2023-03-14T14:01:46;4.40;;;1.13;;
26113;SDS011;13966;48.828;9.064;2023-03-14T14:04:20;2.88;;;0.60;;
26113;SDS011;13966;48.828;9.064;2023-03-14T14:06:50;1.63;;;0.50;;
26113;SDS011;13966;48.828;9.064;2023-03-14T14:09:37;4.03;;;0.93;;
26113;SDS011;13966;48.828;9.064;2023-03-14T14:14:35;1.88;;;0.70;;
26113;SDS011;13966;48.828;9.064;2023-03-14T14:17:03;6.82;;;1.33;;
26113;SDS011;13966;48.828;9.064;2023-03-14T14:19:30;3.15;;;0.93;;
26113;SDS011;13966;48.828;9.064;2023-03-14T14:21:59;2.85;;;1.00;;
26113;SDS011;13966;48.828;9.064;2023-03-14T14:24:28;3.28;;;0.70;;
26113;SDS011;13966;48.828;9.064;2023-03-14T14:26:59;1.55;;;0.90;;
26113;SDS011;13966;48.828;9.064;2023-03-14T14:29:34;1.70;;;0.70;;
26113;SDS011;13966;48.828;9.064;2023-03-14T14:34:30;3.63;;;1.23;;
26113;SDS011;13966;48.828;9.064;2023-03-14T14:37:04;3.10;;;1.02;;
26113;SDS011;13966;48.828;9.064;2023-03-14T14:39:30;2.80;;;1.25;;
26113;SDS011;13966;48.828;9.064;2023-03-14T14:41:56;3.92;;;1.25;;
26113;SDS011;13966;48.828;9.064;2023-03-14T14:44:29;3.83;;;1.40;;
26113;SDS011;13966;48.828;9.064;2023-03-14T14:46:56;3.17;;;1.40;;
26113;SDS011;13966;48.828;9.064;2023-03-14T14:49:27;3.88;;;1.00;;
26113;SDS011;13966;48.828;9.064;2023-03-14T14:51:59;4.15;;;1.10;;
26113;SDS011;13966;48.828;9.064;2023-03-14T14:54:33;4.30;;;1.10;;
26113;SDS011;13966;48.828;9.064;2023-03-14T14:57:01;3.67;;;1.40;;
26113;SDS011;13966;48.828;9.064;2023-03-14T14:59:28;3.88;;;1.60;;
26113;SDS011;13966;48.828;9.064;2023-03-14T15:01:58;4.75;;;1.20;;
26113;SDS011;13966;48.828;9.064;2023-03-14T15:04:24;3.25;;;1.20;;
26113;SDS011;13966;48.828;9.064;2023-03-14T15:06:50;4.13;;;2.58;;
26113;SDS011;13966;48.828;9.064;2023-03-14T15:09:17;5.03;;;1.40;;
26113;SDS011;13966;48.828;9.064;2023-03-14T15:11:44;3.80;;;1.20;;
26113;SDS011;13966;48.828;9.064;2023-03-14T15:14:10;4.82;;;1.48;;
26113;SDS011;13966;48.828;9.064;2023-03-14T15:16:37;5.95;;;1.77;;
26113;SDS011;13966;48.828;9.064;2023-03-14T15:19:08;5.88;;;1.65;;
26113;SDS011;13966;48.828;9.064;2023-03-14T15:21:35;3.95;;;1.27;;
26113;SDS011;13966;48.828;9.064;2023-03-14T15:24:01;3.70;;;1.10;;
26113;SDS011;13966;48.828;9.064;2023-03-14T15:26:27;1.92;;;0.77;;
26113;SDS011;13966;48.828;9.064;2023-03-14T15:28:54;5.40;;;1.13;;
26113;SDS011;13966;48.828;9.064;2023-03-14T15:31:20;3.22;;;1.00;;
26113;SDS011;13966;48.828;9.064;2023-03-14T15:33:46;4.10;;;1.00;;
26113;SDS011;13966;48.828;9.064;2023-03-14T15:36:23;6.22;;;1.10;;
26113;SDS011;13966;48.828;9.064;2023-03-14T15:38:50;3.45;;;0.90;;
26113;SDS011;13966;48.828;9.064;2023-03-14T15:41:17;3.10;;;1.27;;
26113;SDS011;13966;48.828;9.064;2023-03-14T15:43:43;7.15;;;1.20;;
26113;SDS011;13966;48.828;9.064;2023-03-14T15:46:10;3.25;;;1.08;;
26113;SDS011;13966;48.828;9.064;2023-03-14T15:48:36;3.13;;;1.00;;
26113;SDS011;13966;48.828;9.064;2023-03-14T15:51:02;6.30;;;1.48;;
26113;SDS011;13966;48.828;9.064;2023-03-14T15:53:28;4.85;;;1.10;;
26113;SDS011;13966;48.828;9.064;2023-03-14T15:55:54;3.70;;;1.20;;